Time;durP1;ratioP1;P1;durP2;ratioP2;P2;SDS_P1;SDS_P2;PMS_P1;PMS_P2;Temp;Humidity;BMP_temperature;BMP_pressure;BME280_temperature;BME280_humidity;BME280_pressure;Samples;Min_cycle;Max_cycle;Signal;HPM_P1;HPM_P2
2023/03/22 00:00:26;;;;;;;15.40;9.90;;;;;;;;;;4999636;28;20022;-83
2023/03/22 00:02:52;;;;;;;13.40;9.98;;;;;;;;;;5007950;28;20052;-83
2023/03/22 00:05:18;;;;;;;16.13;11.27;;;;;;;;;;5000411;28;20026;-83
2023/03/22 00:07:44;;;;;;;13.95;10.25;;;;;;;;;;4998294;28;20460;-83
2023/03/22 00:10:10;;;;;;;18.65;10.13;;;;;;;;;;4998561;28;20037;-83
2023/03/22 00:12:36;;;;;;;16.75;10.23;;;;;;;;;;5000859;28;20022;-83
2023/03/22 00:15:03;;;;;;;14.75;9.70;;;;;;;;;;5007167;28;20026;-82
2023/03/22 00:17:29;;;;;;;15.85;10.82;;;;;;;;;;5018338;28;20018;-82
2023/03/22 00:19:55;;;;;;;15.63;9.82;;;;;;;;;;5017818;28;20037;-83
2023/03/22 00:22:22;;;;;;;13.15;9.43;;;;;;;;;;5018952;28;20042;-83
2023/03/22 00:24:48;;;;;;;15.38;9.77;;;;;;;;;;5017894;28;20556;-81
2023/03/22 00:27:14;;;;;;;16.83;10.07;;;;;;;;;;4998279;28;20034;-83
2023/03/22 00:29:40;;;;;;;15.55;11.32;;;;;;;;;;4998422;28;20030;-83
2023/03/22 00:32:06;;;;;;;12.98;9.93;;;;;;;;;;5012461;28;20120;-83
2023/03/22 00:34:32;;;;;;;15.27;9.95;;;;;;;;;;5014078;28;20021;-82
2023/03/22 00:36:59;;;;;;;13.23;10.38;;;;;;;;;;5017852;28;20046;-82
2023/03/22 00:39:25;;;;;;;17.80;10.77;;;;;;;;;;5000668;28;20052;-83
2023/03/22 00:41:51;;;;;;;17.23;10.90;;;;;;;;;;4999713;28;20643;-83
2023/03/22 00:44:17;;;;;;;11.82;8.95;;;;;;;;;;5008922;28;20033;-83
2023/03/22 00:46:43;;;;;;;14.85;10.63;;;;;;;;;;5016736;28;20018;-83
2023/03/22 00:49:10;;;;;;;13.57;9.82;;;;;;;;;;5016837;28;20057;-81
2023/03/22 00:51:36;;;;;;;12.88;9.73;;;;;;;;;;5023709;28;20025;-83
2023/03/22 00:54:01;;;;;;;15.88;9.13;;;;;;;;;;5008653;28;20044;-82
2023/03/22 00:56:27;;;;;;;11.32;9.00;;;;;;;;;;4999795;28;20049;-83
2023/03/22 00:58:54;;;;;;;15.07;10.40;;;;;;;;;;4998217;28;20026;-83
2023/03/22 01:01:20;;;;;;;15.60;10.15;;;;;;;;;;5003565;28;20025;-83
2023/03/22 01:03:49;;;;;;;15.32;9.75;;;;;;;;;;5007255;28;20032;-82
2023/03/22 01:06:15;;;;;;;15.15;11.13;;;;;;;;;;5013619;28;20047;-82
2023/03/22 01:08:41;;;;;;;14.90;10.55;;;;;;;;;;4998112;28;20030;-83
2023/03/22 01:11:08;;;;;;;16.85;11.57;;;;;;;;;;5004287;28;20022;-82
2023/03/22 01:13:40;;;;;;;14.90;10.10;;;;;;;;;;5011687;28;20030;-83
2023/03/22 01:16:06;;;;;;;17.50;10.82;;;;;;;;;;4998390;28;20026;-83
2023/03/22 01:18:32;;;;;;;16.38;10.38;;;;;;;;;;4998459;28;20089;-83
2023/03/22 01:20:59;;;;;;;14.02;9.57;;;;;;;;;;5016110;28;20026;-83
2023/03/22 01:23:25;;;;;;;15.07;10.60;;;;;;;;;;5005328;28;20026;-83
2023/03/22 01:25:51;;;;;;;14.85;9.65;;;;;;;;;;5003957;28;20523;-82
2023/03/22 01:28:17;;;;;;;14.10;9.35;;;;;;;;;;5008347;28;20066;-83
2023/03/22 01:30:43;;;;;;;15.73;10.30;;;;;;;;;;5008032;28;20027;-83
2023/03/22 01:33:09;;;;;;;15.88;10.07;;;;;;;;;;5003441;28;20165;-83
2023/03/22 01:35:35;;;;;;;15.52;9.60;;;;;;;;;;5007216;28;20038;-83
2023/03/22 01:38:02;;;;;;;13.93;9.77;;;;;;;;;;5016021;28;20026;-83
2023/03/22 01:40:28;;;;;;;14.02;10.07;;;;;;;;;;5013740;28;20443;-83
2023/03/22 01:42:54;;;;;;;16.67;10.85;;;;;;;;;;4999930;28;20029;-83
2023/03/22 01:45:32;;;;;;;12.77;9.25;;;;;;;;;;5001871;28;20469;-83
2023/03/22 01:48:01;;;;;;;15.00;10.30;;;;;;;;;;5017092;28;20026;-82
2023/03/22 01:50:27;;;;;;;14.40;10.00;;;;;;;;;;4998898;28;20038;-83
2023/03/22 01:52:55;;;;;;;14.98;8.82;;;;;;;;;;4999364;28;20090;-83
2023/03/22 01:55:23;;;;;;;15.13;9.77;;;;;;;;;;5004281;28;20030;-83
2023/03/22 01:57:50;;;;;;;12.55;8.68;;;;;;;;;;4998295;28;20014;-83
2023/03/22 02:00:17;;;;;;;11.95;8.30;;;;;;;;;;5008167;28;20030;-83
2023/03/22 02:02:44;;;;;;;11.45;8.90;;;;;;;;;;5016175;28;20042;-82
2023/03/22 02:05:11;;;;;;;11.73;9.23;;;;;;;;;;5013292;28;20057;-83
2023/03/22 02:07:39;;;;;;;12.68;9.07;;;;;;;;;;4997856;28;20323;-83
2023/03/22 02:10:09;;;;;;;14.13;10.40;;;;;;;;;;5015894;28;20030;-83
2023/03/22 02:12:47;;;;;;;13.20;9.52;;;;;;;;;;5017043;28;20083;-83
2023/03/22 02:15:16;;;;;;;13.45;9.43;;;;;;;;;;5013579;28;20410;-83
2023/03/22 02:17:51;;;;;;;14.93;10.68;;;;;;;;;;5005107;28;20026;-83
2023/03/22 02:20:20;;;;;;;13.40;9.55;;;;;;;;;;4998732;28;20023;-83
2023/03/22 02:22:51;;;;;;;13.05;9.63;;;;;;;;;;5000192;28;20037;-83
2023/03/22 02:25:36;;;;;;;16.23;9.63;;;;;;;;;;5002242;28;21413;-83
2023/03/22 02:28:06;;;;;;;15.13;10.00;;;;;;;;;;5000833;28;20026;-82
2023/03/22 02:30:41;;;;;;;13.32;9.38;;;;;;;;;;5003313;28;20301;-83
2023/03/22 02:33:07;;;;;;;13.15;9.25;;;;;;;;;;5001205;28;20034;-83
2023/03/22 02:35:38;;;;;;;13.23;9.00;;;;;;;;;;5005040;28;20034;-83
2023/03/22 02:38:28;;;;;;;14.63;9.10;;;;;;;;;;5003363;28;20026;-83
2023/03/22 02:40:54;;;;;;;12.35;8.50;;;;;;;;;;4990402;28;20034;-83
2023/03/22 02:43:23;;;;;;;12.52;9.20;;;;;;;;;;5001209;28;20100;-83
2023/03/22 02:45:53;;;;;;;12.52;9.25;;;;;;;;;;5008907;28;20573;-82
2023/03/22 02:48:31;;;;;;;14.50;9.07;;;;;;;;;;5015967;28;20034;-82
2023/03/22 02:51:04;;;;;;;12.43;8.63;;;;;;;;;;5003015;28;20022;-82
2023/03/22 02:53:41;;;;;;;11.95;8.40;;;;;;;;;;4998310;28;20061;-81
2023/03/22 02:56:16;;;;;;;11.18;8.63;;;;;;;;;;5007422;28;20061;-81
2023/03/22 02:58:47;;;;;;;10.82;8.18;;;;;;;;;;5012557;28;20026;-81
2023/03/22 03:01:18;;;;;;;11.93;8.63;;;;;;;;;;5005261;28;20065;-81
2023/03/22 03:03:47;;;;;;;12.43;8.65;;;;;;;;;;5000483;28;20054;-81
2023/03/22 03:06:14;;;;;;;12.60;8.25;;;;;;;;;;5006074;28;20022;-81
2023/03/22 03:08:40;;;;;;;11.75;8.55;;;;;;;;;;5016573;28;20026;-81
2023/03/22 03:11:07;;;;;;;9.52;8.27;;;;;;;;;;5013833;28;20048;-81
2023/03/22 03:13:33;;;;;;;11.18;8.20;;;;;;;;;;5005834;28;20479;-81
2023/03/22 03:15:59;;;;;;;11.70;8.43;;;;;;;;;;5001153;28;20027;-80
2023/03/22 03:18:44;;;;;;;12.20;8.13;;;;;;;;;;4995341;28;20029;-81
2023/03/22 03:21:16;;;;;;;13.18;9.02;;;;;;;;;;4996396;28;20053;-81
2023/03/22 03:23:54;;;;;;;15.43;9.00;;;;;;;;;;4996546;28;20033;-82
2023/03/22 03:26:26;;;;;;;15.52;9.55;;;;;;;;;;4993972;28;20065;-81
2023/03/22 03:29:02;;;;;;;13.98;9.52;;;;;;;;;;4994910;28;20026;-81
2023/03/22 03:31:36;;;;;;;13.77;9.45;;;;;;;;;;5005788;28;20390;-80
2023/03/22 03:34:10;;;;;;;12.18;8.45;;;;;;;;;;4997188;28;20117;-81
2023/03/22 03:36:38;;;;;;;10.88;8.30;;;;;;;;;;5010420;28;20022;-81
2023/03/22 03:39:07;;;;;;;11.15;7.95;;;;;;;;;;5015062;28;20018;-81
2023/03/22 03:41:33;;;;;;;11.82;7.65;;;;;;;;;;4998282;28;20077;-81
2023/03/22 03:43:59;;;;;;;10.98;8.25;;;;;;;;;;5006072;28;20553;-81
2023/03/22 03:46:27;;;;;;;12.52;8.32;;;;;;;;;;5002013;28;20076;-81
2023/03/22 03:48:56;;;;;;;12.35;8.07;;;;;;;;;;5013734;28;20022;-81
2023/03/22 03:51:22;;;;;;;11.15;8.52;;;;;;;;;;5013631;28;20046;-81
2023/03/22 03:53:49;;;;;;;11.65;8.45;;;;;;;;;;5006722;28;20032;-81
2023/03/22 03:56:15;;;;;;;11.38;8.23;;;;;;;;;;4995525;28;20062;-81
2023/03/22 03:58:41;;;;;;;12.05;8.10;;;;;;;;;;4995178;28;20030;-81
2023/03/22 04:01:07;;;;;;;11.98;8.70;;;;;;;;;;4994853;28;20673;-80
2023/03/22 04:03:33;;;;;;;9.90;7.32;;;;;;;;;;4995756;28;20039;-81
2023/03/22 04:05:59;;;;;;;11.65;7.88;;;;;;;;;;4993893;28;20026;-81
2023/03/22 04:08:26;;;;;;;12.10;8.27;;;;;;;;;;4995317;28;20027;-81
2023/03/22 04:10:52;;;;;;;10.68;8.27;;;;;;;;;;5005798;28;20026;-81
2023/03/22 04:13:20;;;;;;;12.40;8.98;;;;;;;;;;5005988;28;20026;-82
2023/03/22 04:15:46;;;;;;;14.55;10.32;;;;;;;;;;5004797;28;20053;-81
2023/03/22 04:18:12;;;;;;;37.30;25.70;;;;;;;;;;5001019;28;20033;-81
2023/03/22 04:20:40;;;;;;;29.50;20.52;;;;;;;;;;5033766;28;20446;-80
2023/03/22 04:23:09;;;;;;;25.50;18.85;;;;;;;;;;5014904;28;20023;-80
2023/03/22 04:25:36;;;;;;;17.58;13.40;;;;;;;;;;4996548;28;20065;-80
2023/03/22 04:28:03;;;;;;;16.50;11.88;;;;;;;;;;5012259;28;20076;-81
2023/03/22 04:30:34;;;;;;;12.65;9.70;;;;;;;;;;5010350;28;20531;-81
2023/03/22 04:33:05;;;;;;;12.32;9.05;;;;;;;;;;5009893;28;20056;-81
2023/03/22 04:35:31;;;;;;;12.20;8.75;;;;;;;;;;4998811;28;20018;-81
2023/03/22 04:38:00;;;;;;;11.32;8.43;;;;;;;;;;5007799;28;20037;-81
2023/03/22 04:40:27;;;;;;;11.10;8.57;;;;;;;;;;4996166;28;20026;-80
2023/03/22 04:42:56;;;;;;;15.38;9.48;;;;;;;;;;5006252;28;20501;-80
2023/03/22 04:45:22;;;;;;;12.88;9.60;;;;;;;;;;5009193;28;20187;-81
2023/03/22 04:47:49;;;;;;;16.00;11.45;;;;;;;;;;4996849;28;20038;-82
2023/03/22 04:50:15;;;;;;;12.73;10.13;;;;;;;;;;5011281;28;20029;-81
2023/03/22 04:52:41;;;;;;;13.95;10.05;;;;;;;;;;5013715;28;20026;-81
2023/03/22 04:55:07;;;;;;;11.35;8.60;;;;;;;;;;5009817;28;20042;-81
2023/03/22 04:57:34;;;;;;;11.23;9.60;;;;;;;;;;4993900;28;20034;-81
2023/03/22 05:00:00;;;;;;;15.40;10.50;;;;;;;;;;4996239;28;20023;-81
2023/03/22 05:02:26;;;;;;;15.35;10.15;;;;;;;;;;4999907;28;20042;-79
2023/03/22 05:04:52;;;;;;;13.98;9.85;;;;;;;;;;5011624;28;20038;-81
2023/03/22 05:07:18;;;;;;;15.50;10.18;;;;;;;;;;4994200;28;20030;-81
2023/03/22 05:09:44;;;;;;;12.82;9.65;;;;;;;;;;4994251;28;20030;-81
2023/03/22 05:12:10;;;;;;;12.20;9.32;;;;;;;;;;4994095;28;20034;-81
2023/03/22 05:14:36;;;;;;;17.05;10.63;;;;;;;;;;4993682;28;20390;-81
2023/03/22 05:17:02;;;;;;;13.13;9.77;;;;;;;;;;5024848;28;20026;-83
2023/03/22 05:19:28;;;;;;;17.38;10.60;;;;;;;;;;5001311;28;20038;-81
2023/03/22 05:21:56;;;;;;;14.93;11.02;;;;;;;;;;5005562;28;20101;-81
2023/03/22 05:24:22;;;;;;;14.77;10.20;;;;;;;;;;5003337;28;20042;-81
2023/03/22 05:26:52;;;;;;;18.15;10.13;;;;;;;;;;4997337;28;20030;-81
2023/03/22 05:29:18;;;;;;;16.73;10.40;;;;;;;;;;4999056;28;20489;-82
2023/03/22 05:31:44;;;;;;;15.85;10.27;;;;;;;;;;5007653;28;20056;-80
2023/03/22 05:34:10;;;;;;;14.82;10.18;;;;;;;;;;4997731;28;20046;-81
2023/03/22 05:36:37;;;;;;;17.05;9.65;;;;;;;;;;4996997;28;20050;-81
2023/03/22 05:39:03;;;;;;;15.55;9.85;;;;;;;;;;5012260;28;20489;-81
2023/03/22 05:41:32;;;;;;;16.02;10.25;;;;;;;;;;5008049;28;20033;-82
2023/03/22 05:43:59;;;;;;;14.20;10.35;;;;;;;;;;5000397;28;20384;-80
2023/03/22 05:46:25;;;;;;;12.95;10.05;;;;;;;;;;5002472;28;20367;-82
2023/03/22 05:48:52;;;;;;;15.02;10.50;;;;;;;;;;5011454;28;20038;-81
2023/03/22 05:51:18;;;;;;;13.27;9.57;;;;;;;;;;5003371;28;20025;-82
2023/03/22 05:53:48;;;;;;;11.73;9.68;;;;;;;;;;5000387;28;20510;-81
2023/03/22 05:56:14;;;;;;;18.35;9.95;;;;;;;;;;4999628;28;20042;-82
2023/03/22 05:58:41;;;;;;;15.18;9.90;;;;;;;;;;5002402;28;20022;-80
2023/03/22 06:01:08;;;;;;;13.90;9.60;;;;;;;;;;5003075;28;20037;-81
2023/03/22 06:03:34;;;;;;;17.00;10.68;;;;;;;;;;5001667;28;20066;-79
2023/03/22 06:06:00;;;;;;;15.15;9.80;;;;;;;;;;5006373;28;20109;-81
2023/03/22 06:08:26;;;;;;;13.18;9.45;;;;;;;;;;5011444;28;20038;-81
2023/03/22 06:10:53;;;;;;;13.75;9.50;;;;;;;;;;5011226;28;20022;-82
2023/03/22 06:13:20;;;;;;;12.27;9.27;;;;;;;;;;5011166;28;20441;-79
2023/03/22 06:15:47;;;;;;;13.10;9.35;;;;;;;;;;5010473;28;20470;-83
2023/03/22 06:18:13;;;;;;;12.00;9.25;;;;;;;;;;5016619;28;20065;-81
2023/03/22 06:20:39;;;;;;;12.13;9.68;;;;;;;;;;5018212;28;20394;-81
2023/03/22 06:23:05;;;;;;;11.93;8.80;;;;;;;;;;5008143;28;20435;-82
2023/03/22 06:25:31;;;;;;;11.98;9.32;;;;;;;;;;5022481;28;20121;-82
2023/03/22 06:27:57;;;;;;;11.75;8.85;;;;;;;;;;5030878;28;20029;-81
2023/03/22 06:30:23;;;;;;;12.10;8.98;;;;;;;;;;5008516;28;20400;-83
2023/03/22 06:32:49;;;;;;;13.52;8.70;;;;;;;;;;5014912;28;20453;-82
2023/03/22 06:35:16;;;;;;;12.55;9.45;;;;;;;;;;5008380;28;20038;-83
2023/03/22 06:37:42;;;;;;;11.77;8.77;;;;;;;;;;5016335;28;20013;-80
2023/03/22 06:40:08;;;;;;;14.02;8.75;;;;;;;;;;5020114;28;20101;-82
2023/03/22 06:42:34;;;;;;;12.80;8.80;;;;;;;;;;4997460;28;20112;-82
2023/03/22 06:45:00;;;;;;;12.50;9.23;;;;;;;;;;5008402;28;20034;-80
2023/03/22 06:47:26;;;;;;;13.52;8.93;;;;;;;;;;5002507;28;20041;-81
2023/03/22 06:49:52;;;;;;;12.35;8.70;;;;;;;;;;5010494;28;20036;-81
2023/03/22 06:52:18;;;;;;;13.93;8.93;;;;;;;;;;5001847;28;20490;-79
2023/03/22 06:54:44;;;;;;;10.93;8.45;;;;;;;;;;4997524;28;20026;-81
2023/03/22 06:57:10;;;;;;;11.52;9.20;;;;;;;;;;5009992;28;20506;-81
2023/03/22 06:59:37;;;;;;;12.25;8.93;;;;;;;;;;5013550;28;20053;-81
2023/03/22 07:02:03;;;;;;;12.82;9.25;;;;;;;;;;5007697;28;20037;-80
2023/03/22 07:04:29;;;;;;;12.30;9.00;;;;;;;;;;5000521;28;20061;-82
2023/03/22 07:06:55;;;;;;;18.30;9.95;;;;;;;;;;5009381;28;20026;-80
2023/03/22 07:09:23;;;;;;;22.83;9.52;;;;;;;;;;5009497;28;20034;-81
2023/03/22 07:11:49;;;;;;;17.80;9.57;;;;;;;;;;4997386;28;20022;-82
2023/03/22 07:14:15;;;;;;;14.27;9.05;;;;;;;;;;4996074;28;20160;-81
2023/03/22 07:16:41;;;;;;;12.73;9.23;;;;;;;;;;5004472;28;20538;-80
2023/03/22 07:19:07;;;;;;;18.00;10.50;;;;;;;;;;5015578;28;20021;-79
2023/03/22 07:21:33;;;;;;;18.02;11.57;;;;;;;;;;5009056;28;20509;-80
2023/03/22 07:24:00;;;;;;;19.17;10.73;;;;;;;;;;5007069;28;20030;-80
2023/03/22 07:26:26;;;;;;;14.25;9.32;;;;;;;;;;5010468;28;20030;-79
2023/03/22 07:28:52;;;;;;;12.95;9.23;;;;;;;;;;5005416;28;20076;-80
2023/03/22 07:31:18;;;;;;;14.05;10.38;;;;;;;;;;5005276;28;20026;-80
2023/03/22 07:33:44;;;;;;;15.45;9.93;;;;;;;;;;5012724;28;20018;-81
2023/03/22 07:36:10;;;;;;;13.70;10.48;;;;;;;;;;5016353;28;20560;-80
2023/03/22 07:38:37;;;;;;;14.57;10.02;;;;;;;;;;5007411;28;20494;-81
2023/03/22 07:41:03;;;;;;;13.07;10.18;;;;;;;;;;5006815;28;20057;-84
2023/03/22 07:43:29;;;;;;;15.63;10.65;;;;;;;;;;5002501;28;20441;-82
2023/03/22 07:45:56;;;;;;;16.10;10.65;;;;;;;;;;5016014;28;20109;-82
2023/03/22 07:48:22;;;;;;;13.50;10.25;;;;;;;;;;5015326;28;20084;-83
2023/03/22 07:50:48;;;;;;;14.60;10.80;;;;;;;;;;5015935;28;20032;-82
2023/03/22 07:53:14;;;;;;;14.30;10.68;;;;;;;;;;5012647;28;20101;-82
2023/03/22 07:55:43;;;;;;;19.30;10.98;;;;;;;;;;5013939;28;20037;-82
2023/03/22 07:58:09;;;;;;;16.33;10.70;;;;;;;;;;5008986;28;20022;-82
2023/03/22 08:00:35;;;;;;;13.48;10.07;;;;;;;;;;5011545;28;20022;-82
2023/03/22 08:03:01;;;;;;;16.00;10.70;;;;;;;;;;4996441;28;20042;-82
2023/03/22 08:05:27;;;;;;;15.57;10.38;;;;;;;;;;4995725;28;20029;-80
2023/03/22 08:07:55;;;;;;;13.38;10.18;;;;;;;;;;4998333;28;20030;-80
2023/03/22 08:10:21;;;;;;;15.18;9.98;;;;;;;;;;5003508;28;20034;-79
2023/03/22 08:12:47;;;;;;;14.63;11.35;;;;;;;;;;4998143;28;20032;-81
2023/03/22 08:15:13;;;;;;;17.23;11.50;;;;;;;;;;4997462;28;20118;-81
2023/03/22 08:17:39;;;;;;;16.67;10.48;;;;;;;;;;5011077;28;20050;-83
2023/03/22 08:20:07;;;;;;;14.55;10.13;;;;;;;;;;5004744;28;20025;-81
2023/03/22 08:22:35;;;;;;;15.38;10.40;;;;;;;;;;5010883;28;20030;-82
2023/03/22 08:25:01;;;;;;;16.63;10.25;;;;;;;;;;5015158;28;20032;-82
2023/03/22 08:27:27;;;;;;;17.10;11.27;;;;;;;;;;5014225;28;20026;-81
2023/03/22 08:29:53;;;;;;;14.27;10.40;;;;;;;;;;5007592;28;20065;-81
2023/03/22 08:32:20;;;;;;;15.52;11.05;;;;;;;;;;5020061;28;20093;-82
2023/03/22 08:34:46;;;;;;;16.33;10.30;;;;;;;;;;5012246;28;20535;-81
2023/03/22 08:37:12;;;;;;;16.15;10.63;;;;;;;;;;4995613;28;20027;-82
2023/03/22 08:39:39;;;;;;;16.88;10.82;;;;;;;;;;4997662;28;20049;-81
2023/03/22 08:42:05;;;;;;;17.50;10.90;;;;;;;;;;4997324;28;20033;-82
2023/03/22 08:44:31;;;;;;;14.57;10.90;;;;;;;;;;4994805;28;20034;-82
2023/03/22 08:46:57;;;;;;;14.07;10.73;;;;;;;;;;5004134;28;20144;-82
2023/03/22 08:49:23;;;;;;;14.07;10.85;;;;;;;;;;5013851;28;20104;-81
2023/03/22 08:51:49;;;;;;;15.43;10.15;;;;;;;;;;5010461;28;20050;-82
2023/03/22 08:54:15;;;;;;;15.40;10.90;;;;;;;;;;5020130;28;20032;-82
2023/03/22 08:56:41;;;;;;;14.00;9.98;;;;;;;;;;5025864;28;20076;-82
2023/03/22 08:59:08;;;;;;;15.90;10.02;;;;;;;;;;5014965;28;20030;-83
2023/03/22 09:01:34;;;;;;;12.18;9.23;;;;;;;;;;5010588;28;20053;-81
2023/03/22 09:04:00;;;;;;;11.80;8.57;;;;;;;;;;5000181;28;20026;-82
2023/03/22 09:06:27;;;;;;;11.18;8.70;;;;;;;;;;4993049;28;20019;-82
2023/03/22 09:08:53;;;;;;;10.63;8.73;;;;;;;;;;4993871;28;20126;-82
2023/03/22 09:11:19;;;;;;;12.15;9.18;;;;;;;;;;4995099;28;20029;-81
2023/03/22 09:13:46;;;;;;;14.05;10.00;;;;;;;;;;5012874;28;20593;-81
2023/03/22 09:16:12;;;;;;;11.30;8.88;;;;;;;;;;5013957;28;20397;-80
2023/03/22 09:18:38;;;;;;;10.95;8.07;;;;;;;;;;5014516;28;20049;-82
2023/03/22 09:21:06;;;;;;;13.15;8.35;;;;;;;;;;4998422;28;20036;-81
2023/03/22 09:23:33;;;;;;;9.82;7.32;;;;;;;;;;4995783;28;20109;-81
2023/03/22 09:26:03;;;;;;;9.50;6.47;;;;;;;;;;4994403;28;20447;-82
2023/03/22 09:28:29;;;;;;;7.93;5.80;;;;;;;;;;4993105;28;20027;-82
2023/03/22 09:31:00;;;;;;;9.40;5.13;;;;;;;;;;5014781;28;20048;-82
2023/03/22 09:33:26;;;;;;;9.50;6.95;;;;;;;;;;5007182;28;20081;-82
2023/03/22 09:35:53;;;;;;;7.97;5.32;;;;;;;;;;4999378;28;20030;-81
2023/03/22 09:38:20;;;;;;;6.90;3.60;;;;;;;;;;5003135;28;20031;-81
2023/03/22 09:40:51;;;;;;;9.38;4.00;;;;;;;;;;5003044;28;20022;-82
2023/03/22 09:43:18;;;;;;;6.82;3.88;;;;;;;;;;5005926;28;20039;-81
2023/03/22 09:45:47;;;;;;;9.00;5.82;;;;;;;;;;5007633;28;20038;-81
2023/03/22 09:48:21;;;;;;;6.72;5.07;;;;;;;;;;5018407;28;20080;-82
2023/03/22 09:50:49;;;;;;;8.82;4.80;;;;;;;;;;5037805;28;20082;-82
2023/03/22 09:53:16;;;;;;;7.75;4.80;;;;;;;;;;5012425;28;20022;-80
2023/03/22 09:56:00;;;;;;;8.80;5.30;;;;;;;;;;5006312;28;20130;-81
2023/03/22 09:58:41;;;;;;;8.73;5.50;;;;;;;;;;5023328;28;20022;-81
2023/03/22 10:01:17;;;;;;;10.93;5.70;;;;;;;;;;4997813;28;20031;-81
2023/03/22 10:04:02;;;;;;;9.30;6.20;;;;;;;;;;5003083;28;20084;-82
2023/03/22 10:06:29;;;;;;;9.13;5.95;;;;;;;;;;5015004;28;20061;-82
2023/03/22 10:08:58;;;;;;;9.38;6.80;;;;;;;;;;5024484;28;20075;-81
2023/03/22 10:11:24;;;;;;;9.65;6.32;;;;;;;;;;5014377;28;20033;-81
2023/03/22 10:13:59;;;;;;;9.90;5.82;;;;;;;;;;5004348;28;20034;-80
2023/03/22 10:16:29;;;;;;;8.15;5.95;;;;;;;;;;5003730;28;20034;-82
2023/03/22 10:19:01;;;;;;;7.93;5.70;;;;;;;;;;5022404;28;20026;-81
2023/03/22 10:21:27;;;;;;;9.65;6.40;;;;;;;;;;5007376;28;20030;-80
2023/03/22 10:23:56;;;;;;;10.00;6.55;;;;;;;;;;4998960;28;20109;-80
2023/03/22 10:26:48;;;;;;;8.65;5.82;;;;;;;;;;5003104;28;20067;-81
2023/03/22 10:32:19;;;;;;;9.25;5.97;;;;;;;;;;5002754;28;20446;-80
2023/03/22 10:34:46;;;;;;;8.23;5.43;;;;;;;;;;5011826;28;21396;-81
2023/03/22 10:37:17;;;;;;;8.43;5.63;;;;;;;;;;5006016;28;20026;-83
2023/03/22 10:39:48;;;;;;;7.47;5.15;;;;;;;;;;4996626;28;20390;-81
2023/03/22 10:42:20;;;;;;;7.00;6.00;;;;;;;;;;5003884;28;20030;-82
2023/03/22 10:44:58;;;;;;;9.27;5.73;;;;;;;;;;5010306;28;20035;-81
2023/03/22 10:47:30;;;;;;;6.80;5.18;;;;;;;;;;4998332;28;20034;-81
2023/03/22 10:49:58;;;;;;;7.78;4.65;;;;;;;;;;5023681;28;20029;-82
2023/03/22 10:52:30;;;;;;;9.20;4.90;;;;;;;;;;5015184;28;20447;-82
2023/03/22 10:54:56;;;;;;;7.05;4.38;;;;;;;;;;5006410;28;20226;-83
2023/03/22 10:57:24;;;;;;;8.15;5.40;;;;;;;;;;5003343;28;20036;-83
2023/03/22 10:59:51;;;;;;;9.65;4.97;;;;;;;;;;5004766;28;20018;-83
2023/03/22 11:02:17;;;;;;;7.10;5.15;;;;;;;;;;5002682;28;20046;-84
2023/03/22 11:04:54;;;;;;;8.75;4.13;;;;;;;;;;5004931;28;20034;-83
2023/03/22 11:07:30;;;;;;;6.72;4.22;;;;;;;;;;5014141;28;20121;-83
2023/03/22 11:10:20;;;;;;;9.02;4.13;;;;;;;;;;5009367;28;20042;-82
2023/03/22 11:12:51;;;;;;;8.68;5.18;;;;;;;;;;4994614;28;20065;-83
2023/03/22 11:15:20;;;;;;;6.78;4.47;;;;;;;;;;5006958;28;20030;-82
2023/03/22 11:17:46;;;;;;;6.55;4.45;;;;;;;;;;5006525;28;20073;-82
2023/03/22 11:20:15;;;;;;;8.35;4.65;;;;;;;;;;5000719;28;20622;-83
2023/03/22 11:22:43;;;;;;;6.65;3.80;;;;;;;;;;5004140;28;20485;-83
2023/03/22 11:25:21;;;;;;;6.30;3.60;;;;;;;;;;5010780;28;20045;-83
2023/03/22 11:27:52;;;;;;;5.70;3.55;;;;;;;;;;5000822;28;20081;-83
2023/03/22 11:30:23;;;;;;;7.72;3.53;;;;;;;;;;5002082;28;20113;-84
2023/03/22 11:32:49;;;;;;;6.50;4.55;;;;;;;;;;5014288;28;20030;-84
2023/03/22 11:35:22;;;;;;;6.90;4.00;;;;;;;;;;5008171;28;20036;-84
2023/03/22 11:37:52;;;;;;;6.63;3.83;;;;;;;;;;5001048;28;20045;-83
2023/03/22 11:40:20;;;;;;;7.00;3.90;;;;;;;;;;5001717;28;20026;-83
2023/03/22 11:42:48;;;;;;;7.63;3.97;;;;;;;;;;5003768;28;20486;-83
2023/03/22 11:45:16;;;;;;;7.18;4.00;;;;;;;;;;5018247;28;20084;-83
2023/03/22 11:47:42;;;;;;;7.85;4.50;;;;;;;;;;5001868;28;20038;-84
2023/03/22 11:50:15;;;;;;;7.25;4.18;;;;;;;;;;5011119;28;20470;-83
2023/03/22 11:52:46;;;;;;;5.63;3.55;;;;;;;;;;5003056;28;20045;-83
2023/03/22 11:55:13;;;;;;;6.60;3.30;;;;;;;;;;5019256;28;20414;-83
2023/03/22 11:57:40;;;;;;;6.20;3.83;;;;;;;;;;5019110;28;20025;-83
2023/03/22 12:00:12;;;;;;;6.93;3.75;;;;;;;;;;5012720;28;20028;-84
2023/03/22 12:02:49;;;;;;;6.03;3.70;;;;;;;;;;4999116;28;20121;-83
2023/03/22 12:05:26;;;;;;;5.80;3.45;;;;;;;;;;5002367;28;20033;-83
2023/03/22 12:07:54;;;;;;;5.80;3.00;;;;;;;;;;5018694;28;20033;-83
2023/03/22 12:10:25;;;;;;;6.15;3.45;;;;;;;;;;5010928;28;20034;-83
2023/03/22 12:13:03;;;;;;;4.70;2.83;;;;;;;;;;5001955;28;20057;-84
2023/03/22 12:15:31;;;;;;;6.25;3.40;;;;;;;;;;5000790;28;20089;-83
2023/03/22 12:18:04;;;;;;;5.40;3.30;;;;;;;;;;5009809;28;20026;-84
2023/03/22 12:20:53;;;;;;;7.28;3.70;;;;;;;;;;5014646;28;20029;-82
2023/03/22 12:23:20;;;;;;;5.30;2.90;;;;;;;;;;5007459;28;20129;-83
2023/03/22 12:25:58;;;;;;;6.70;2.90;;;;;;;;;;5020911;28;20056;-84
2023/03/22 12:28:30;;;;;;;5.85;3.58;;;;;;;;;;5009510;28;20061;-83
2023/03/22 12:30:58;;;;;;;6.88;4.30;;;;;;;;;;5014447;28;20041;-84
2023/03/22 12:33:25;;;;;;;6.78;4.28;;;;;;;;;;5014076;28;20030;-84
2023/03/22 12:35:55;;;;;;;6.65;3.95;;;;;;;;;;4999974;28;20030;-84
2023/03/22 12:38:39;;;;;;;6.63;3.75;;;;;;;;;;5010210;28;20022;-83
2023/03/22 12:41:10;;;;;;;5.38;3.22;;;;;;;;;;4998487;28;20033;-85
2023/03/22 12:43:42;;;;;;;6.50;3.30;;;;;;;;;;5005998;28;20442;-83
2023/03/22 12:46:14;;;;;;;6.63;3.75;;;;;;;;;;5006670;28;20074;-83
2023/03/22 12:48:52;;;;;;;6.50;3.28;;;;;;;;;;5014591;28;20045;-83
2023/03/22 12:51:18;;;;;;;7.82;3.78;;;;;;;;;;5017094;28;20040;-84
2023/03/22 12:53:49;;;;;;;8.93;3.80;;;;;;;;;;5015865;28;20041;-84
2023/03/22 12:56:17;;;;;;;6.78;3.70;;;;;;;;;;5015790;28;20029;-83
2023/03/22 12:58:46;;;;;;;7.47;3.92;;;;;;;;;;5003156;28;20490;-83
2023/03/22 13:01:19;;;;;;;6.80;4.05;;;;;;;;;;4998268;28;20502;-84
2023/03/22 13:03:49;;;;;;;7.00;4.30;;;;;;;;;;4998323;28;20038;-84
2023/03/22 13:06:35;;;;;;;6.90;3.90;;;;;;;;;;5000279;28;20025;-83
2023/03/22 13:09:16;;;;;;;6.68;4.28;;;;;;;;;;5017627;28;20038;-83
2023/03/22 13:11:42;;;;;;;6.22;4.18;;;;;;;;;;5018301;28;20025;-84
2023/03/22 13:14:11;;;;;;;6.95;4.82;;;;;;;;;;5000950;28;20125;-83
2023/03/22 13:17:03;;;;;;;6.95;4.45;;;;;;;;;;5003133;28;20074;-84
2023/03/22 13:19:33;;;;;;;6.70;4.55;;;;;;;;;;5009794;28;20563;-84
2023/03/22 13:22:20;;;;;;;8.30;3.80;;;;;;;;;;5014705;28;20022;-83
2023/03/22 13:25:07;;;;;;;7.10;3.78;;;;;;;;;;5014732;28;20026;-84
2023/03/22 13:27:49;;;;;;;8.05;3.90;;;;;;;;;;5005282;28;20030;-84
2023/03/22 13:30:31;;;;;;;7.07;3.92;;;;;;;;;;5001789;28;20112;-85
2023/03/22 13:33:02;;;;;;;7.25;4.22;;;;;;;;;;5011335;28;20426;-83
2023/03/22 13:35:36;;;;;;;7.40;4.50;;;;;;;;;;5012833;28;20068;-84
2023/03/22 13:38:06;;;;;;;6.85;3.55;;;;;;;;;;5001756;28;20031;-84
2023/03/22 13:40:38;;;;;;;7.45;4.78;;;;;;;;;;4997227;28;20025;-84
2023/03/22 13:43:13;;;;;;;7.35;4.30;;;;;;;;;;5002142;28;20093;-83
2023/03/22 13:45:57;;;;;;;8.55;4.93;;;;;;;;;;5014527;28;20116;-84
2023/03/22 13:48:31;;;;;;;6.85;4.22;;;;;;;;;;5004558;28;20025;-84
2023/03/22 13:50:57;;;;;;;7.45;4.20;;;;;;;;;;5017095;28;20033;-83
2023/03/22 13:53:29;;;;;;;8.35;4.43;;;;;;;;;;5003223;28;20121;-84
2023/03/22 13:55:55;;;;;;;8.45;4.47;;;;;;;;;;5016751;28;20079;-84
2023/03/22 13:58:31;;;;;;;8.45;4.30;;;;;;;;;;5002067;28;20026;-84
2023/03/22 14:00:58;;;;;;;6.28;4.28;;;;;;;;;;5010283;28;20018;-83
2023/03/22 14:03:29;;;;;;;7.50;4.40;;;;;;;;;;5015850;28;20049;-84
2023/03/22 14:06:03;;;;;;;6.45;4.03;;;;;;;;;;5000219;28;20065;-84
2023/03/22 14:08:29;;;;;;;6.38;4.00;;;;;;;;;;5004397;28;20031;-83
2023/03/22 14:11:02;;;;;;;6.38;4.10;;;;;;;;;;5001690;28;20445;-83
2023/03/22 14:13:31;;;;;;;12.65;4.10;;;;;;;;;;5003054;28;20023;-83
2023/03/22 14:16:09;;;;;;;7.45;4.43;;;;;;;;;;4999100;28;20065;-84
2023/03/22 14:18:36;;;;;;;8.63;3.97;;;;;;;;;;5004684;28;20168;-83
2023/03/22 14:21:05;;;;;;;7.32;3.90;;;;;;;;;;5014234;28;20025;-83
2023/03/22 14:23:46;;;;;;;7.63;4.55;;;;;;;;;;5015219;28;20093;-83
2023/03/22 14:26:12;;;;;;;6.85;4.13;;;;;;;;;;5001844;28;20062;-83
2023/03/22 14:28:39;;;;;;;7.88;4.35;;;;;;;;;;5000554;28;20049;-84
2023/03/22 14:31:06;;;;;;;6.53;4.40;;;;;;;;;;5001871;28;20465;-84
2023/03/22 14:33:36;;;;;;;7.82;4.15;;;;;;;;;;5007809;28;20033;-83
2023/03/22 14:36:03;;;;;;;7.22;4.20;;;;;;;;;;5000816;28;20027;-83
2023/03/22 14:38:31;;;;;;;6.97;4.35;;;;;;;;;;5002473;28;20026;-83
2023/03/22 14:41:07;;;;;;;8.93;4.00;;;;;;;;;;5001402;28;20014;-83
2023/03/22 14:43:34;;;;;;;9.10;4.13;;;;;;;;;;5001409;28;20026;-85